METAR Data
IDs: Format: Raw Decoded Include TAF

Data at: 0316 UTC 18 Jun 2019

PAHO 180253Z 26009KT 10SM BKN070 OVC085 14/08 A2967 RMK AO2 SLP047 T01390083 53006 $
PAHO 180153Z 26008KT 10SM BKN075 OVC090 14/09 A2966 RMK AO2 SLP044 T01390089 $
PAHO 180053Z 22011KT 10SM OVC070 12/10 A2966 RMK AO2 SLP042 T01220100 $
PAHO 172353Z 22009KT 10SM OVC065 13/08 A2965 RMK AO2 SLP041 T01330083 10161 20122 53008 $
PAHO 172253Z AUTO 22007KT 10SM OVC065 14/08 A2965 RMK AO2 SLP039 T01390078 TSNO $
PAHO 172153Z 23008KT 10SM BKN060 14/08 A2963 RMK AO2 SLP035 T01440078
PAHO 172053Z 23006KT 10SM SCT060 BKN080 13/09 A2963 RMK AO2 SLP033 T01330089 50001
PAHO 171953Z COR 22004KT 10SM BKN070 BKN080 13/10 A2963 RMK AO2 SLP034 T01330100
PAHO 171853Z 20003KT 10SM OVC080 12/10 A2962 RMK AO2 SLP032 T01220100
PAHO 171753Z VRB03KT 10SM BKN080 13/09 A2963 RMK AO2 SLP032 T01280094 10128 20083 58003
PAHO 171653Z 12003KT 10SM SCT065 12/09 A2963 RMK AO2 SLP034 T01170089
PAHO 171553Z 10003KT 10SM CLR 11/09 A2963 RMK AO2 SLP035 T01060089
PAHO 171453Z 00000KT 10SM CLR 09/08 A2963 RMK AO2 SLP035 T00940078 56009
PAHO 171353Z 00000KT 10SM BKN120 09/07 A2964 RMK AO2 SLP037 T00890072 $
PAHO 171253Z AUTO 00000KT 10SM BKN060 10/08 A2965 RMK AO2 SLP041 T01000078 TSNO $
PAHO 171153Z AUTO 22006KT 10SM CLR 10/08 A2966 RMK AO2 SLP044 70002 T01000078 10122 20089 58015 TSNO $
PAHO 171053Z AUTO VRB03KT 10SM FEW065 OVC090 10/08 A2968 RMK AO2 SLP050 T01000078 TSNO $
PAHO 170953Z AUTO 03004KT 10SM OVC095 10/07 A2969 RMK AO2 SLP055 T01000072 TSNO $
PAHO 170853Z AUTO 03003KT 10SM FEW100 10/07 A2971 RMK AO2 SLP059 T01000067 401560089 58010 TSNO $
PAHO 170753Z AUTO 33003KT 10SM CLR 12/08 A2972 RMK AO2 SLP063 T01170078 TSNO $
PAHO 170653Z AUTO 24004KT 10SM CLR 11/08 A2973 RMK AO2 SLP068 T01110078 TSNO $
PAHO 170553Z AUTO 25005KT 10SM FEW100 12/07 A2974 RMK AO2 SLP069 T01220067 10150 20122 57007 TSNO $
PAHO 170453Z 26007KT 10SM OVC100 13/07 A2974 RMK AO2 SLP072 T01280072 $
PAHO 170353Z 00000KT 10SM CLR 14/06 A2975 RMK AO2 SLP073 T01390061 $
PAHO 170253Z 22004KT 10SM CLR 14/08 A2976 RMK AO2 SLP076 T01390078 58007 $
PAHO 170153Z VRB03KT 10SM CLR 13/09 A2976 RMK SLP078 T01330089 $ VIA AUTODIAL
PAHO 170053Z 26005KT 10SM SCT060 14/09 A2977 RMK AO2 SLPNO T01390089 $
PAHO 162353Z 25007KT 10SM FEW075 14/09 A2978 RMK AO2 SLP083 60001 T01440094 10156 20111 58002 $
PAHO 162253Z COR 26008KT 10SM SCT047 BKN080 15/10 A2978 RMK AO2 SLP084 T01500100 $
PAHO 162153Z 26014G18KT 10SM FEW005 BKN070 12/11 A2978 RMK AO2 RAB19E38 SLP085 P0001 T01220106 $
PAHO 162053Z 25014KT 10SM SCT070 13/10 A2978 RMK AO2 SLP085 T01330100 53002 $
PAHO 161953Z 26007KT 10SM OVC070 13/09 A2978 RMK AO2 SLP083 T01330089 $
PAHO 161853Z 22005KT 10SM FEW060 14/09 A2978 RMK AO2 SLP083 T01390094 $
PAHO 161753Z 19004KT 10SM BKN060 13/09 A2978 RMK AO2 SLP083 60001 T01330089 51009 $
PAHO 161653Z 06004KT 10SM SCT049 SCT060 13/09 A2977 RMK AO2 RAE08 SLP080 P0000 T01330089 $
PAHO 161553Z 04004KT 10SM -RA FEW048 OVC060 12/08 A2976 RMK AO2 RAE23B48 SLP079 P0001 T01170083 $